Time;durP1;ratioP1;P1;durP2;ratioP2;P2;SDS_P1;SDS_P2;PMS_P1;PMS_P2;Temp;Humidity;BMP_temperature;BMP_pressure;BME280_temperature;BME280_humidity;BME280_pressure;Samples;Min_cycle;Max_cycle;Signal;HPM_P1;HPM_P2
2023/02/19 00:01:33;;;;;;;1.53;1.10;;;10.20;99.90;;;;;;5046747;28;21267;-67
2023/02/19 00:04:02;;;;;;;1.13;1.10;;;10.20;99.90;;;;;;5028206;28;20631;-67
2023/02/19 00:06:32;;;;;;;1.73;1.60;;;10.20;99.90;;;;;;5027420;28;20689;-67
2023/02/19 00:08:58;;;;;;;0.97;0.80;;;10.20;99.90;;;;;;5027629;28;20619;-67
2023/02/19 00:11:27;;;;;;;2.47;2.10;;;10.20;99.90;;;;;;5026761;28;20754;-68
2023/02/19 00:13:56;;;;;;;1.20;1.20;;;10.20;99.90;;;;;;5044125;28;20626;-68
2023/02/19 00:16:25;;;;;;;0.93;0.90;;;10.20;99.90;;;;;;5032601;28;20657;-68
2023/02/19 00:18:53;;;;;;;2.20;2.10;;;10.20;99.90;;;;;;5045950;28;20626;-68
2023/02/19 00:21:23;;;;;;;0.70;0.70;;;10.20;99.90;;;;;;5036381;28;20661;-66
2023/02/19 00:23:52;;;;;;;0.70;0.70;;;10.20;99.90;;;;;;5042142;28;20639;-67
2023/02/19 00:26:19;;;;;;;3.37;1.67;;;10.20;99.90;;;;;;5046721;28;20654;-67
2023/02/19 00:28:47;;;;;;;1.27;1.17;;;10.20;99.90;;;;;;5038726;28;20630;-66
2023/02/19 00:31:17;;;;;;;1.40;1.30;;;10.20;99.90;;;;;;5041958;28;21273;-66
2023/02/19 00:33:44;;;;;;;0.50;0.50;;;10.20;99.90;;;;;;5035638;28;20631;-66
2023/02/19 00:36:12;;;;;;;1.20;1.10;;;10.20;99.90;;;;;;5030101;28;21392;-67
2023/02/19 00:38:40;;;;;;;1.73;1.63;;;10.20;99.80;;;;;;5030001;28;20641;-67
2023/02/19 00:41:18;;;;;;;1.20;0.90;;;10.20;99.90;;;;;;5046063;28;21235;-68
2023/02/19 00:43:46;;;;;;;0.60;0.50;;;10.20;99.90;;;;;;5045692;28;20669;-67
2023/02/19 00:46:13;;;;;;;1.13;0.70;;;10.20;99.90;;;;;;5049997;28;20681;-67
2023/02/19 00:48:40;;;;;;;1.00;0.90;;;10.10;99.90;;;;;;5041422;28;20635;-67
2023/02/19 00:51:07;;;;;;;1.03;0.93;;;10.20;99.90;;;;;;5029486;28;20651;-67
2023/02/19 00:53:34;;;;;;;0.83;0.83;;;10.20;99.80;;;;;;5032897;28;20650;-67
2023/02/19 00:56:00;;;;;;;1.13;0.90;;;10.20;99.90;;;;;;5049961;28;20646;-66
2023/02/19 00:58:28;;;;;;;1.60;0.87;;;10.10;99.90;;;;;;5051819;28;21014;-66
2023/02/19 01:00:55;;;;;;;0.50;0.50;;;10.10;99.90;;;;;;5061060;28;20661;-67
2023/02/19 01:03:22;;;;;;;0.50;0.47;;;10.10;99.90;;;;;;5038243;28;20681;-68
2023/02/19 01:05:49;;;;;;;0.80;0.80;;;10.10;99.90;;;;;;5034118;28;21086;-67
2023/02/19 01:08:16;;;;;;;0.80;0.70;;;10.20;99.80;;;;;;5048370;28;21269;-67
2023/02/19 01:10:43;;;;;;;1.23;1.00;;;10.10;99.90;;;;;;5043779;28;20659;-67
2023/02/19 01:13:10;;;;;;;2.20;0.60;;;10.10;99.90;;;;;;5035086;28;21203;-67
2023/02/19 01:15:38;;;;;;;1.03;1.00;;;10.10;99.80;;;;;;5029525;28;20671;-67
2023/02/19 01:18:06;;;;;;;0.80;0.80;;;10.10;99.70;;;;;;5034397;28;20627;-67
2023/02/19 01:20:32;;;;;;;1.10;1.00;;;10.10;99.60;;;;;;5046116;28;20653;-67
2023/02/19 01:22:59;;;;;;;0.90;0.90;;;10.10;99.60;;;;;;5037812;28;20666;-66
2023/02/19 01:25:26;;;;;;;1.27;0.63;;;10.10;99.60;;;;;;5049322;28;20662;-67
2023/02/19 01:27:53;;;;;;;1.03;0.87;;;10.10;99.80;;;;;;5045921;28;20615;-68
2023/02/19 01:30:19;;;;;;;1.03;0.90;;;10.10;99.80;;;;;;5028353;28;20627;-67
2023/02/19 01:32:47;;;;;;;1.47;1.17;;;10.00;99.70;;;;;;5037550;28;20637;-67
2023/02/19 01:35:14;;;;;;;2.13;0.90;;;10.10;99.70;;;;;;5048854;28;20626;-67
2023/02/19 01:37:41;;;;;;;1.83;1.10;;;10.00;99.90;;;;;;5029289;28;20653;-66
2023/02/19 01:40:09;;;;;;;1.33;0.70;;;10.00;99.90;;;;;;5045949;28;20613;-67
2023/02/19 01:42:36;;;;;;;1.73;1.00;;;10.00;99.90;;;;;;5035280;28;20658;-67
2023/02/19 01:45:28;;;;;;;1.23;1.13;;;10.00;99.90;;;;;;5049594;28;20691;-67
2023/02/19 01:48:02;;;;;;;1.90;0.73;;;9.90;99.90;;;;;;5049597;28;20729;-66
2023/02/19 01:50:35;;;;;;;1.00;0.60;;;10.00;99.90;;;;;;5046588;28;20654;-66
2023/02/19 01:53:05;;;;;;;3.90;1.73;;;9.90;99.90;;;;;;5037509;28;20641;-66
2023/02/19 01:55:33;;;;;;;0.80;0.80;;;9.90;99.90;;;;;;5045221;28;20658;-67
2023/02/19 01:58:01;;;;;;;1.27;1.20;;;9.80;99.90;;;;;;5036977;28;20628;-67
2023/02/19 02:00:28;;;;;;;0.50;0.50;;;9.80;99.90;;;;;;5064692;28;20643;-67
2023/02/19 02:02:57;;;;;;;0.60;0.60;;;9.80;99.90;;;;;;5038802;28;21248;-66
2023/02/19 02:05:41;;;;;;;0.70;0.70;;;9.80;99.90;;;;;;5033823;28;21226;-66
2023/02/19 02:10:53;;;;;;;1.23;1.10;;;9.80;99.90;;;;;;5028851;28;20651;-66
2023/02/19 02:13:20;;;;;;;0.90;0.90;;;9.80;99.90;;;;;;5041888;28;20631;-66
2023/02/19 02:15:55;;;;;;;0.60;0.60;;;9.80;99.90;;;;;;5044032;28;21328;-67
2023/02/19 02:18:32;;;;;;;0.90;0.67;;;9.70;99.90;;;;;;5035830;28;21030;-67
2023/02/19 02:21:18;;;;;;;1.60;1.10;;;9.70;99.90;;;;;;5047196;28;20764;-67
2023/02/19 02:24:05;;;;;;;1.00;0.97;;;9.70;99.90;;;;;;5028682;28;20685;-67
2023/02/19 02:26:51;;;;;;;1.07;1.07;;;9.70;99.90;;;;;;5028066;28;20793;-67
2023/02/19 02:29:41;;;;;;;1.20;1.10;;;9.70;99.90;;;;;;5028445;28;20619;-67
2023/02/19 02:32:12;;;;;;;1.80;1.70;;;9.70;99.90;;;;;;5022634;28;20658;-67
2023/02/19 02:34:45;;;;;;;1.63;0.70;;;9.60;99.90;;;;;;5048205;28;20626;-67
2023/02/19 02:37:15;;;;;;;0.70;0.70;;;9.70;99.90;;;;;;5047364;28;20666;-67
2023/02/19 02:39:44;;;;;;;1.33;1.00;;;9.60;99.90;;;;;;5052465;28;20710;-67
2023/02/19 02:42:28;;;;;;;0.60;0.60;;;9.60;99.90;;;;;;5040015;28;20678;-67
2023/02/19 02:47:48;;;;;;;1.10;0.73;;;9.60;99.90;;;;;;5041142;28;20745;-67
2023/02/19 02:50:19;;;;;;;0.80;0.80;;;9.60;99.90;;;;;;5047023;28;20626;-67
2023/02/19 02:55:41;;;;;;;0.80;0.80;;;9.60;99.90;;;;;;5027941;28;20658;-67
2023/02/19 02:58:11;;;;;;;1.23;1.13;;;9.60;99.90;;;;;;5049320;28;21039;-67
2023/02/19 03:03:29;;;;;;;2.47;0.93;;;9.60;99.90;;;;;;5046366;28;21292;-67
2023/02/19 03:06:02;;;;;;;0.63;0.47;;;9.60;99.90;;;;;;5027440;28;21272;-67
2023/02/19 03:08:34;;;;;;;3.20;1.20;;;9.60;99.90;;;;;;5028226;28;20612;-67
2023/02/19 03:19:17;;;;;;;0.97;0.90;;;9.60;99.90;;;;;;5047721;28;20690;-67
2023/02/19 03:19:30;;;;;;;0.30;0.20;;;9.50;99.90;;;;;;5040963;28;21214;-67
2023/02/19 03:22:02;;;;;;;1.70;1.30;;;9.50;99.90;;;;;;5047186;28;20647;-67
2023/02/19 03:27:20;;;;;;;0.90;0.90;;;9.30;99.90;;;;;;5046375;28;20658;-67
2023/02/19 03:29:50;;;;;;;0.83;0.83;;;9.20;99.90;;;;;;5029045;28;20616;-67
2023/02/19 03:32:21;;;;;;;0.93;0.60;;;9.20;99.90;;;;;;5046678;28;20773;-67
2023/02/19 03:34:54;;;;;;;0.70;0.70;;;9.20;99.90;;;;;;5027353;28;20608;-67
2023/02/19 03:37:28;;;;;;;1.37;0.80;;;9.10;99.90;;;;;;5027145;28;20663;-67
2023/02/19 03:39:57;;;;;;;1.33;0.80;;;9.10;99.90;;;;;;5041044;28;20624;-67
2023/02/19 03:42:36;;;;;;;0.60;0.60;;;9.10;99.90;;;;;;5039040;28;20659;-67
2023/02/19 03:45:18;;;;;;;0.67;0.60;;;9.10;99.90;;;;;;5047427;28;20611;-68
2023/02/19 03:47:52;;;;;;;1.27;0.70;;;9.10;99.90;;;;;;5030379;28;20725;-67
2023/02/19 03:50:24;;;;;;;0.77;0.67;;;9.00;99.90;;;;;;5044504;28;20622;-67
2023/02/19 03:52:59;;;;;;;2.53;0.50;;;9.00;99.90;;;;;;5031073;28;20625;-67
2023/02/19 03:55:34;;;;;;;0.50;0.50;;;9.00;99.90;;;;;;5027163;28;20659;-67
2023/02/19 03:58:08;;;;;;;0.43;0.43;;;8.90;99.90;;;;;;5030135;28;20638;-67
2023/02/19 04:00:42;;;;;;;0.60;0.60;;;8.90;99.90;;;;;;5046010;28;20752;-67
2023/02/19 04:03:15;;;;;;;0.70;0.70;;;8.90;99.90;;;;;;5038567;28;21078;-67
2023/02/19 04:05:49;;;;;;;0.50;0.50;;;8.80;99.90;;;;;;5031111;28;20647;-68
2023/02/19 04:08:19;;;;;;;0.50;0.23;;;8.80;99.90;;;;;;5031141;28;20643;-67
2023/02/19 04:10:46;;;;;;;0.70;0.70;;;8.80;99.90;;;;;;5050623;28;20749;-67
2023/02/19 04:13:19;;;;;;;0.70;0.70;;;8.80;99.90;;;;;;5032252;28;20643;-67
2023/02/19 04:15:47;;;;;;;0.70;0.70;;;8.80;99.90;;;;;;5030807;28;20682;-67
2023/02/19 04:18:17;;;;;;;1.33;1.23;;;8.80;99.90;;;;;;5036641;28;20625;-67
2023/02/19 04:20:48;;;;;;;0.70;0.70;;;8.80;99.90;;;;;;5050270;28;20648;-68
2023/02/19 04:23:20;;;;;;;0.73;0.57;;;8.90;99.90;;;;;;5042242;28;21083;-67
2023/02/19 04:25:50;;;;;;;0.50;0.50;;;8.80;99.90;;;;;;5030321;28;21092;-67
2023/02/19 04:28:18;;;;;;;0.40;0.27;;;8.80;99.90;;;;;;5036625;28;21225;-67
2023/02/19 04:30:45;;;;;;;0.80;0.60;;;8.80;99.90;;;;;;5042135;28;20650;-68
2023/02/19 04:33:12;;;;;;;0.30;0.30;;;8.70;99.90;;;;;;5047300;28;20637;-67
2023/02/19 04:35:39;;;;;;;0.30;0.20;;;8.80;99.90;;;;;;5050786;28;20753;-67
2023/02/19 04:38:07;;;;;;;0.77;0.57;;;8.80;99.90;;;;;;5049728;28;20630;-67
2023/02/19 04:40:34;;;;;;;0.40;0.30;;;8.80;99.90;;;;;;5039746;28;21013;-68
2023/02/19 04:43:01;;;;;;;0.40;0.20;;;8.80;99.90;;;;;;5031579;28;20650;-67
2023/02/19 04:45:28;;;;;;;0.60;0.43;;;8.70;99.90;;;;;;5030428;28;20639;-67
2023/02/19 04:47:54;;;;;;;0.30;0.30;;;8.80;99.90;;;;;;5033432;28;20622;-67
2023/02/19 04:50:22;;;;;;;0.40;0.30;;;8.70;99.90;;;;;;5045451;28;20626;-68
2023/02/19 04:52:48;;;;;;;0.40;0.30;;;8.70;99.90;;;;;;5033725;28;21203;-67
2023/02/19 04:55:17;;;;;;;0.30;0.30;;;8.70;99.90;;;;;;5050275;28;20705;-67
2023/02/19 04:57:43;;;;;;;0.30;0.20;;;8.70;99.90;;;;;;5049288;28;20864;-68
2023/02/19 05:00:14;;;;;;;0.30;0.20;;;8.70;99.90;;;;;;5053116;28;20631;-67
2023/02/19 05:02:40;;;;;;;0.40;0.30;;;8.70;99.90;;;;;;5042441;28;20631;-67
2023/02/19 05:05:08;;;;;;;0.70;0.43;;;8.70;99.90;;;;;;5029475;28;20623;-68
2023/02/19 05:07:34;;;;;;;1.00;0.50;;;8.80;99.90;;;;;;5029998;28;21244;-68
2023/02/19 05:10:01;;;;;;;0.30;0.20;;;8.70;99.90;;;;;;5029134;28;21199;-67
2023/02/19 05:12:31;;;;;;;0.30;0.20;;;8.70;99.90;;;;;;5035189;28;21245;-67
2023/02/19 05:14:58;;;;;;;0.43;0.40;;;8.70;99.90;;;;;;5049336;28;20622;-67
2023/02/19 05:17:24;;;;;;;0.30;0.30;;;8.70;99.90;;;;;;5049544;28;20646;-67
2023/02/19 05:19:51;;;;;;;0.60;0.50;;;8.70;99.90;;;;;;5032842;28;20631;-67
2023/02/19 05:22:18;;;;;;;0.30;0.20;;;8.70;99.90;;;;;;5042778;28;20656;-66
2023/02/19 05:24:45;;;;;;;0.40;0.20;;;8.70;99.90;;;;;;5049557;28;20654;-68
2023/02/19 05:27:11;;;;;;;0.30;0.30;;;8.70;99.90;;;;;;5049278;28;20646;-67
2023/02/19 05:29:40;;;;;;;0.30;0.20;;;8.70;99.90;;;;;;5048650;28;20622;-67
2023/02/19 05:32:06;;;;;;;0.30;0.20;;;8.80;99.90;;;;;;5037652;28;21248;-68
2023/02/19 05:34:33;;;;;;;0.30;0.20;;;8.70;99.90;;;;;;5035373;28;20630;-68
2023/02/19 05:37:00;;;;;;;0.40;0.30;;;8.70;99.90;;;;;;5048496;28;20697;-65
2023/02/19 05:39:27;;;;;;;0.30;0.20;;;8.80;99.90;;;;;;5052753;28;20626;-65
2023/02/19 05:41:54;;;;;;;0.40;0.30;;;8.80;99.90;;;;;;5042006;28;20647;-66
2023/02/19 05:44:20;;;;;;;0.30;0.20;;;8.70;99.90;;;;;;5049452;28;20681;-65
2023/02/19 05:46:48;;;;;;;0.30;0.20;;;8.60;99.90;;;;;;5048392;28;20658;-66
2023/02/19 05:49:15;;;;;;;0.30;0.10;;;8.80;99.90;;;;;;5048813;28;20622;-66
2023/02/19 05:51:42;;;;;;;0.40;0.30;;;8.70;99.90;;;;;;5036659;28;20655;-65
2023/02/19 05:54:09;;;;;;;0.30;0.20;;;8.70;99.90;;;;;;5046681;28;20622;-66
2023/02/19 05:56:37;;;;;;;3.80;0.30;;;8.70;99.90;;;;;;5047712;28;20651;-66
2023/02/19 05:59:07;;;;;;;0.30;0.20;;;8.70;99.90;;;;;;5057957;28;20637;-66
2023/02/19 06:01:35;;;;;;;0.30;0.20;;;8.70;99.90;;;;;;5060763;28;20662;-66
2023/02/19 06:04:03;;;;;;;0.30;0.20;;;8.70;99.90;;;;;;5057514;28;20763;-66
2023/02/19 06:06:30;;;;;;;0.30;0.30;;;8.70;99.90;;;;;;5054930;28;20665;-66
2023/02/19 06:08:57;;;;;;;0.30;0.23;;;8.60;99.90;;;;;;5054118;28;21095;-66
2023/02/19 06:11:25;;;;;;;0.30;0.20;;;8.60;99.90;;;;;;5054261;28;20649;-66
2023/02/19 06:13:51;;;;;;;2.00;1.07;;;8.60;99.90;;;;;;5054487;28;20949;-65
2023/02/19 06:16:20;;;;;;;3.23;1.00;;;8.60;99.90;;;;;;5056837;28;21002;-65
2023/02/19 06:18:48;;;;;;;0.40;0.20;;;8.60;99.90;;;;;;5058305;28;20618;-66
2023/02/19 06:21:17;;;;;;;0.30;0.30;;;8.50;99.90;;;;;;5057094;28;20664;-65
2023/02/19 06:23:44;;;;;;;0.30;0.20;;;8.40;99.90;;;;;;5056097;28;20670;-68
2023/02/19 06:26:12;;;;;;;0.50;0.30;;;8.30;99.90;;;;;;5056345;28;20649;-65
2023/02/19 06:28:40;;;;;;;0.30;0.20;;;8.30;99.90;;;;;;5057026;28;20622;-67
2023/02/19 06:31:08;;;;;;;0.30;0.30;;;8.30;99.90;;;;;;5056475;28;20654;-65
2023/02/19 06:33:37;;;;;;;0.40;0.30;;;8.20;99.90;;;;;;5053103;28;20626;-66
2023/02/19 06:36:04;;;;;;;0.30;0.20;;;8.20;99.90;;;;;;5054424;28;20658;-65
2023/02/19 06:38:35;;;;;;;0.30;0.20;;;8.20;99.90;;;;;;5054723;28;20735;-65
2023/02/19 06:41:03;;;;;;;0.30;0.27;;;8.20;99.90;;;;;;5052592;28;20659;-65
2023/02/19 06:43:32;;;;;;;0.30;0.20;;;8.20;99.90;;;;;;5056849;28;20660;-65
2023/02/19 06:45:59;;;;;;;0.30;0.20;;;8.20;99.90;;;;;;5048762;28;20648;-69
2023/02/19 06:48:26;;;;;;;0.30;0.10;;;8.30;99.90;;;;;;5050143;28;20645;-66
2023/02/19 06:50:53;;;;;;;0.40;0.30;;;8.30;99.90;;;;;;5048784;28;21062;-66
2023/02/19 06:53:20;;;;;;;0.30;0.20;;;8.20;99.90;;;;;;5058341;28;20625;-67
2023/02/19 06:55:57;;;;;;;0.67;0.30;;;8.30;99.90;;;;;;5054985;28;20647;-67
2023/02/19 06:58:23;;;;;;;0.30;0.20;;;8.30;99.90;;;;;;5055343;28;20640;-67
2023/02/19 07:00:50;;;;;;;0.67;0.30;;;8.30;99.90;;;;;;5055996;28;20654;-67
2023/02/19 07:03:17;;;;;;;0.50;0.50;;;8.30;99.90;;;;;;5055292;28;21003;-66
2023/02/19 07:05:44;;;;;;;0.30;0.20;;;8.30;99.90;;;;;;5057414;28;21003;-67
2023/02/19 07:08:11;;;;;;;0.30;0.20;;;8.40;99.90;;;;;;5055339;28;20630;-66
2023/02/19 07:10:37;;;;;;;0.40;0.23;;;8.40;99.90;;;;;;5054154;28;20658;-65
2023/02/19 07:13:05;;;;;;;0.30;0.20;;;8.40;99.90;;;;;;5056776;28;21024;-66
2023/02/19 07:15:32;;;;;;;0.30;0.30;;;8.40;99.90;;;;;;5055101;28;20655;-66
2023/02/19 07:17:59;;;;;;;0.73;0.70;;;8.40;99.90;;;;;;5053837;28;20634;-68
2023/02/19 07:20:26;;;;;;;0.60;0.27;;;8.40;99.90;;;;;;5056077;28;20653;-66
2023/02/19 07:22:53;;;;;;;0.60;0.30;;;8.40;99.90;;;;;;5055073;28;20632;-67
2023/02/19 07:25:20;;;;;;;0.30;0.20;;;8.40;99.90;;;;;;5057233;28;20661;-66
2023/02/19 07:27:47;;;;;;;1.10;0.37;;;8.40;99.90;;;;;;5054780;28;21232;-66
2023/02/19 07:30:15;;;;;;;0.37;0.30;;;8.40;99.90;;;;;;5052326;28;20636;-66
2023/02/19 07:32:44;;;;;;;0.30;0.30;;;8.40;99.90;;;;;;5047077;28;20616;-66
2023/02/19 07:35:11;;;;;;;0.93;0.53;;;8.40;99.90;;;;;;5046113;28;20618;-66
2023/02/19 07:37:38;;;;;;;1.00;0.77;;;8.40;99.90;;;;;;5046796;28;20650;-66
2023/02/19 07:40:05;;;;;;;0.30;0.20;;;8.40;99.90;;;;;;5053554;28;21193;-66
2023/02/19 07:42:32;;;;;;;1.00;0.50;;;8.50;99.90;;;;;;5043271;28;20987;-66
2023/02/19 07:44:59;;;;;;;0.50;0.43;;;8.50;99.90;;;;;;5027360;28;20659;-66
2023/02/19 07:47:28;;;;;;;0.70;0.40;;;8.50;99.90;;;;;;5027008;28;20654;-66
2023/02/19 07:49:55;;;;;;;1.60;0.73;;;8.50;99.90;;;;;;5045326;28;20626;-66
2023/02/19 07:52:22;;;;;;;0.43;0.43;;;8.50;99.90;;;;;;5040194;28;20644;-66
2023/02/19 07:54:49;;;;;;;0.60;0.60;;;8.60;99.90;;;;;;5039462;28;20635;-66
2023/02/19 07:57:16;;;;;;;0.30;0.30;;;8.60;99.90;;;;;;5026796;28;20651;-67
2023/02/19 07:59:42;;;;;;;0.40;0.40;;;8.70;99.90;;;;;;5064249;28;20632;-66
2023/02/19 08:05:01;;;;;;;0.50;0.50;;;8.70;99.90;;;;;;5047123;28;21101;-67
2023/02/19 08:07:32;;;;;;;0.60;0.60;;;8.80;99.90;;;;;;5046384;28;20646;-66
2023/02/19 08:15:23;;;;;;;0.57;0.50;;;8.80;99.50;;;;;;5039742;28;20650;-66
2023/02/19 08:17:50;;;;;;;0.40;0.30;;;8.90;99.40;;;;;;5044274;28;20635;-66
2023/02/19 08:20:18;;;;;;;0.30;0.20;;;8.90;99.60;;;;;;5026162;28;20626;-66
2023/02/19 08:22:45;;;;;;;0.40;0.30;;;8.90;99.30;;;;;;5032024;28;20618;-67
2023/02/19 08:25:12;;;;;;;0.40;0.40;;;8.90;98.90;;;;;;5045828;28;21016;-66
2023/02/19 08:27:38;;;;;;;0.73;0.30;;;8.90;98.90;;;;;;5046793;28;20634;-67
2023/02/19 08:30:07;;;;;;;0.37;0.37;;;8.90;99.00;;;;;;5025370;28;21198;-66
2023/02/19 08:32:34;;;;;;;3.20;0.83;;;8.80;99.20;;;;;;5028214;28;20646;-66
2023/02/19 08:35:01;;;;;;;0.47;0.40;;;8.80;99.40;;;;;;5026673;28;20741;-66
2023/02/19 08:37:29;;;;;;;0.50;0.50;;;8.80;99.70;;;;;;5026293;28;21249;-67
2023/02/19 08:39:55;;;;;;;0.50;0.47;;;8.70;99.90;;;;;;5040035;28;21237;-66
2023/02/19 08:42:22;;;;;;;0.40;0.40;;;8.70;99.90;;;;;;5043604;28;21235;-66
2023/02/19 08:44:49;;;;;;;1.23;0.50;;;8.70;99.90;;;;;;5046707;28;21264;-66
2023/02/19 08:47:16;;;;;;;0.70;0.70;;;8.80;99.90;;;;;;5046057;28;20650;-67
2023/02/19 08:49:42;;;;;;;0.50;0.50;;;8.80;99.90;;;;;;5033437;28;20629;-66
2023/02/19 08:52:09;;;;;;;0.50;0.50;;;8.80;99.90;;;;;;5037919;28;20948;-67
2023/02/19 08:54:37;;;;;;;0.30;0.20;;;8.80;99.90;;;;;;5029299;28;20627;-66
2023/02/19 08:57:04;;;;;;;2.47;0.33;;;8.90;99.90;;;;;;5029951;28;20659;-66
2023/02/19 08:59:31;;;;;;;0.40;0.40;;;8.90;99.90;;;;;;5061813;28;21026;-66
2023/02/19 09:01:58;;;;;;;0.30;0.20;;;8.80;99.90;;;;;;5031927;28;20646;-66
2023/02/19 09:04:25;;;;;;;0.97;0.77;;;8.90;99.90;;;;;;5030030;28;20739;-67
2023/02/19 09:06:52;;;;;;;1.57;0.63;;;8.90;99.90;;;;;;5029901;28;20657;-66
2023/02/19 09:09:19;;;;;;;0.70;0.43;;;8.90;99.90;;;;;;5036798;28;20629;-66
2023/02/19 09:11:47;;;;;;;0.30;0.20;;;8.90;99.90;;;;;;5047498;28;20664;-66
2023/02/19 09:14:13;;;;;;;1.90;0.70;;;8.90;99.90;;;;;;5029877;28;21302;-66
2023/02/19 09:16:40;;;;;;;0.30;0.30;;;8.90;99.60;;;;;;5032717;28;21219;-67
2023/02/19 09:19:07;;;;;;;0.50;0.40;;;9.00;99.70;;;;;;5037815;28;20627;-67
2023/02/19 09:21:34;;;;;;;0.83;0.80;;;9.00;99.50;;;;;;5029456;28;20651;-66
2023/02/19 09:24:00;;;;;;;0.50;0.50;;;9.00;99.40;;;;;;5046002;28;21064;-66
2023/02/19 09:26:27;;;;;;;0.60;0.53;;;9.00;99.40;;;;;;5048837;28;20761;-67
2023/02/19 09:28:55;;;;;;;0.37;0.23;;;9.00;98.80;;;;;;5038596;28;20634;-66
2023/02/19 09:31:22;;;;;;;0.43;0.30;;;9.00;98.30;;;;;;5029827;28;20662;-66
2023/02/19 09:33:49;;;;;;;0.40;0.40;;;9.00;97.80;;;;;;5034030;28;20646;-67
2023/02/19 09:36:17;;;;;;;0.30;0.20;;;9.00;98.00;;;;;;5029286;28;20643;-66
2023/02/19 09:38:44;;;;;;;0.40;0.40;;;9.10;97.70;;;;;;5028861;28;20623;-67
2023/02/19 09:41:18;;;;;;;0.50;0.47;;;9.10;97.70;;;;;;5056437;28;21104;-66
2023/02/19 09:43:45;;;;;;;0.40;0.20;;;9.20;97.30;;;;;;5047476;28;20634;-67
2023/02/19 09:46:24;;;;;;;0.30;0.20;;;9.20;97.20;;;;;;5047226;28;20682;-67
2023/02/19 09:48:53;;;;;;;0.60;0.43;;;9.20;96.70;;;;;;5029020;28;20945;-67
2023/02/19 09:51:20;;;;;;;1.57;0.83;;;9.20;96.50;;;;;;5037511;28;20654;-66
2023/02/19 09:53:50;;;;;;;0.30;0.20;;;9.30;96.80;;;;;;5035495;28;20627;-66
2023/02/19 09:56:18;;;;;;;4.73;1.13;;;9.30;96.30;;;;;;5033364;28;20658;-66
2023/02/19 09:58:49;;;;;;;2.57;0.30;;;9.40;96.40;;;;;;5047812;28;20622;-66
2023/02/19 10:01:18;;;;;;;0.30;0.30;;;9.50;95.90;;;;;;5038670;28;20940;-66
2023/02/19 10:03:47;;;;;;;3.87;0.43;;;9.50;95.50;;;;;;5029924;28;20683;-67
2023/02/19 10:06:19;;;;;;;0.53;0.40;;;9.40;95.20;;;;;;5028880;28;20662;-67
2023/02/19 10:08:47;;;;;;;0.40;0.30;;;9.50;95.50;;;;;;5032531;28;21086;-66
2023/02/19 10:11:15;;;;;;;0.30;0.30;;;9.60;95.00;;;;;;5039672;28;20658;-67
2023/02/19 10:13:45;;;;;;;0.60;0.30;;;9.60;94.70;;;;;;5045711;28;20630;-66
2023/02/19 10:16:16;;;;;;;0.50;0.50;;;9.50;94.90;;;;;;5047010;28;20654;-66
2023/02/19 10:18:46;;;;;;;0.30;0.30;;;9.70;95.30;;;;;;5036606;28;21305;-66
2023/02/19 10:21:16;;;;;;;0.70;0.40;;;9.70;95.30;;;;;;5047750;28;20650;-66
2023/02/19 10:23:44;;;;;;;0.60;0.60;;;9.70;95.00;;;;;;5048340;28;20630;-67
2023/02/19 10:26:10;;;;;;;0.40;0.37;;;9.70;95.40;;;;;;5047308;28;21570;-66
2023/02/19 10:28:38;;;;;;;0.40;0.40;;;9.70;95.40;;;;;;5039559;28;20632;-66
2023/02/19 10:31:14;;;;;;;0.73;0.57;;;9.80;95.30;;;;;;5030818;28;21216;-66
2023/02/19 10:33:50;;;;;;;0.80;0.77;;;9.70;95.00;;;;;;5043619;28;21196;-66
2023/02/19 10:36:25;;;;;;;0.80;0.37;;;9.80;95.80;;;;;;5027854;28;20651;-67
2023/02/19 10:38:53;;;;;;;1.17;0.60;;;9.80;95.40;;;;;;5027579;28;20627;-67
2023/02/19 10:41:22;;;;;;;0.30;0.20;;;9.90;95.20;;;;;;5038031;28;21240;-67
2023/02/19 10:43:55;;;;;;;0.83;0.60;;;9.80;95.10;;;;;;5029486;28;20627;-66
2023/02/19 10:46:25;;;;;;;0.37;0.37;;;9.80;95.40;;;;;;5028453;28;20677;-66
2023/02/19 10:48:55;;;;;;;0.30;0.30;;;9.90;95.20;;;;;;5038849;28;20626;-66
2023/02/19 10:51:29;;;;;;;0.60;0.50;;;10.00;94.60;;;;;;5046451;28;21135;-66
2023/02/19 10:54:05;;;;;;;2.43;0.43;;;10.00;94.30;;;;;;5028255;28;21058;-67
2023/02/19 10:56:32;;;;;;;1.27;0.60;;;10.00;94.40;;;;;;5027883;28;20716;-66
2023/02/19 10:59:15;;;;;;;0.60;0.60;;;9.90;94.80;;;;;;5039016;28;20630;-66
2023/02/19 11:01:54;;;;;;;1.77;0.30;;;9.90;94.40;;;;;;5047149;28;21326;-66
2023/02/19 11:04:22;;;;;;;0.50;0.40;;;10.00;93.60;;;;;;5037711;28;20619;-66
2023/02/19 11:06:49;;;;;;;1.87;0.57;;;10.10;93.60;;;;;;5027580;28;20678;-66
2023/02/19 11:09:26;;;;;;;0.40;0.40;;;10.10;93.40;;;;;;5027071;28;20635;-67
2023/02/19 11:11:55;;;;;;;1.63;0.70;;;10.10;93.50;;;;;;5027276;28;20650;-67
2023/02/19 11:14:24;;;;;;;0.50;0.40;;;10.10;93.20;;;;;;5044339;28;21187;-66
2023/02/19 11:16:55;;;;;;;0.77;0.57;;;10.10;93.10;;;;;;5047331;28;20657;-66
2023/02/19 11:19:35;;;;;;;0.77;0.63;;;10.20;93.60;;;;;;5032123;28;20995;-67
2023/02/19 11:22:03;;;;;;;0.40;0.30;;;10.20;93.00;;;;;;5028387;28;20647;-67
2023/02/19 11:24:33;;;;;;;0.50;0.50;;;10.30;93.00;;;;;;5047593;28;20621;-67
2023/02/19 11:27:03;;;;;;;0.37;0.20;;;10.30;92.60;;;;;;5038540;28;20792;-66
2023/02/19 11:29:33;;;;;;;0.30;0.20;;;10.20;92.40;;;;;;5039381;28;20618;-66
2023/02/19 11:32:23;;;;;;;3.90;0.97;;;10.20;92.80;;;;;;5028664;28;20662;-66
2023/02/19 11:34:52;;;;;;;1.53;0.50;;;10.20;92.80;;;;;;5046544;28;20627;-67
2023/02/19 11:37:20;;;;;;;2.73;0.50;;;10.20;92.80;;;;;;5046982;28;20674;-66
2023/02/19 11:39:49;;;;;;;0.43;0.20;;;10.30;93.00;;;;;;5052447;28;20632;-67
2023/02/19 11:42:33;;;;;;;0.30;0.20;;;10.30;92.60;;;;;;5048971;28;20656;-66
2023/02/19 11:45:29;;;;;;;0.80;0.63;;;10.30;92.70;;;;;;5030071;28;21187;-67
2023/02/19 11:48:23;;;;;;;0.50;0.50;;;10.30;92.40;;;;;;5031014;28;20627;-66
2023/02/19 11:51:05;;;;;;;0.40;0.30;;;10.10;92.40;;;;;;5047116;28;20654;-67
2023/02/19 11:53:36;;;;;;;0.43;0.43;;;10.10;92.90;;;;;;5034310;28;20971;-66
2023/02/19 11:56:14;;;;;;;0.33;0.33;;;10.20;92.80;;;;;;5036365;28;20642;-67
2023/02/19 11:58:59;;;;;;;1.07;0.37;;;10.20;92.80;;;;;;5046387;28;20625;-66
2023/02/19 12:01:50;;;;;;;2.63;0.60;;;10.20;92.70;;;;;;5032658;28;20663;-67
2023/02/19 12:05:03;;;;;;;0.80;0.67;;;10.20;92.40;;;;;;5032270;28;20657;-67
2023/02/19 12:08:10;;;;;;;0.40;0.30;;;10.20;92.40;;;;;;5046575;28;21002;-66
2023/02/19 12:10:50;;;;;;;0.30;0.30;;;10.20;92.60;;;;;;5034550;28;20658;-66
2023/02/19 12:13:27;;;;;;;0.43;0.40;;;10.20;92.20;;;;;;5034215;28;20637;-66
2023/02/19 12:16:05;;;;;;;2.20;0.70;;;10.10;92.70;;;;;;5026912;28;20658;-67
2023/02/19 12:18:45;;;;;;;0.40;0.20;;;10.10;92.90;;;;;;5032764;28;20629;-66
2023/02/19 12:21:21;;;;;;;0.40;0.40;;;10.10;92.80;;;;;;5046484;28;21292;-66
2023/02/19 12:24:08;;;;;;;0.60;0.57;;;10.10;92.70;;;;;;5035012;28;20631;-67
2023/02/19 12:26:40;;;;;;;0.50;0.47;;;10.10;92.10;;;;;;5035987;28;20674;-66
2023/02/19 12:29:32;;;;;;;6.90;1.67;;;10.20;92.30;;;;;;5036631;28;20634;-67
2023/02/19 12:32:19;;;;;;;0.30;0.30;;;10.10;92.10;;;;;;5035094;28;21244;-66
2023/02/19 12:35:05;;;;;;;0.50;0.30;;;10.20;92.30;;;;;;5031002;28;20626;-67
2023/02/19 12:37:41;;;;;;;1.10;0.70;;;10.40;92.00;;;;;;5033440;28;20834;-66
2023/02/19 12:40:30;;;;;;;1.27;0.70;;;10.70;92.20;;;;;;5047258;28;20618;-66
2023/02/19 12:43:10;;;;;;;0.60;0.40;;;10.80;91.40;;;;;;5045401;28;20958;-66
2023/02/19 12:45:41;;;;;;;0.53;0.33;;;10.70;91.10;;;;;;5029836;28;20677;-67
2023/02/19 12:48:16;;;;;;;0.70;0.50;;;10.70;91.80;;;;;;5033454;28;20634;-67
2023/02/19 12:50:45;;;;;;;0.73;0.60;;;10.80;90.50;;;;;;5043968;28;20654;-66
2023/02/19 12:53:37;;;;;;;0.73;0.40;;;10.70;90.70;;;;;;5038669;28;20984;-66
2023/02/19 12:56:12;;;;;;;0.40;0.20;;;10.80;90.90;;;;;;5048548;28;20654;-66
2023/02/19 12:58:43;;;;;;;0.50;0.50;;;10.70;90.70;;;;;;5051640;28;20632;-66
2023/02/19 13:01:15;;;;;;;1.00;0.77;;;10.60;91.20;;;;;;5031064;28;20651;-66
2023/02/19 13:03:48;;;;;;;0.97;0.73;;;10.60;91.10;;;;;;5031837;28;20626;-66
2023/02/19 13:06:27;;;;;;;0.90;0.77;;;10.70;91.10;;;;;;5030142;28;20667;-67
2023/02/19 13:08:57;;;;;;;0.97;0.60;;;10.80;90.70;;;;;;5045337;28;20618;-66
2023/02/19 13:11:33;;;;;;;1.13;1.03;;;10.80;90.80;;;;;;5047590;28;20662;-66
2023/02/19 13:14:05;;;;;;;6.63;0.63;;;10.70;90.40;;;;;;5029863;28;20629;-67
2023/02/19 13:16:39;;;;;;;0.30;0.30;;;10.70;90.20;;;;;;5043934;28;20652;-66
2023/02/19 13:19:06;;;;;;;0.63;0.40;;;10.60;90.20;;;;;;5047927;28;20696;-66
2023/02/19 13:24:24;;;;;;;4.50;0.90;;;10.50;90.30;;;;;;5029417;28;20619;-66
2023/02/19 13:27:09;;;;;;;0.30;0.30;;;10.50;90.50;;;;;;5029226;28;21264;-66
2023/02/19 13:29:52;;;;;;;0.50;0.40;;;10.50;90.40;;;;;;5054672;28;20632;-66
2023/02/19 13:32:37;;;;;;;0.80;0.50;;;10.50;90.90;;;;;;5049641;28;20668;-67
2023/02/19 13:35:21;;;;;;;0.80;0.63;;;10.60;90.60;;;;;;5047667;28;20633;-67
2023/02/19 13:37:49;;;;;;;0.30;0.30;;;10.60;90.60;;;;;;5050733;28;21268;-66
2023/02/19 13:40:31;;;;;;;0.50;0.50;;;10.50;90.30;;;;;;5047575;28;20622;-66
2023/02/19 13:43:01;;;;;;;0.30;0.20;;;10.40;90.70;;;;;;5049532;28;20665;-66